sensor_id;sensor_type;location;lat;lon;timestamp;P1;durP1;ratioP1;P2;durP2;ratioP2
10383;SDS011;5238;43.508;4.980;2023-05-15T00:01:47;6.25;;;2.97;;
10383;SDS011;5238;43.508;4.980;2023-05-15T00:04:16;4.75;;;3.08;;
10383;SDS011;5238;43.508;4.980;2023-05-15T00:06:43;2.85;;;2.65;;
10383;SDS011;5238;43.508;4.980;2023-05-15T00:09:16;2.92;;;2.72;;
10383;SDS011;5238;43.508;4.980;2023-05-15T00:11:42;2.80;;;2.60;;
10383;SDS011;5238;43.508;4.980;2023-05-15T00:14:13;3.20;;;2.90;;
10383;SDS011;5238;43.508;4.980;2023-05-15T00:16:45;3.05;;;2.80;;
10383;SDS011;5238;43.508;4.980;2023-05-15T00:19:12;3.75;;;2.72;;
10383;SDS011;5238;43.508;4.980;2023-05-15T00:21:41;3.67;;;2.97;;
10383;SDS011;5238;43.508;4.980;2023-05-15T00:24:09;3.95;;;3.28;;
10383;SDS011;5238;43.508;4.980;2023-05-15T00:26:36;3.40;;;2.67;;
10383;SDS011;5238;43.508;4.980;2023-05-15T00:29:05;4.25;;;2.90;;
10383;SDS011;5238;43.508;4.980;2023-05-15T00:31:34;3.28;;;2.92;;
10383;SDS011;5238;43.508;4.980;2023-05-15T00:34:01;3.28;;;3.03;;
10383;SDS011;5238;43.508;4.980;2023-05-15T00:36:28;4.00;;;3.30;;
10383;SDS011;5238;43.508;4.980;2023-05-15T00:38:55;2.80;;;2.22;;
10383;SDS011;5238;43.508;4.980;2023-05-15T00:41:25;3.20;;;2.95;;
10383;SDS011;5238;43.508;4.980;2023-05-15T00:43:59;3.90;;;3.38;;
10383;SDS011;5238;43.508;4.980;2023-05-15T00:46:27;3.22;;;2.83;;
10383;SDS011;5238;43.508;4.980;2023-05-15T00:49:03;3.67;;;3.38;;
10383;SDS011;5238;43.508;4.980;2023-05-15T00:51:39;3.53;;;3.05;;
10383;SDS011;5238;43.508;4.980;2023-05-15T00:54:07;3.35;;;3.05;;
10383;SDS011;5238;43.508;4.980;2023-05-15T00:56:34;3.80;;;3.50;;
10383;SDS011;5238;43.508;4.980;2023-05-15T00:59:02;3.00;;;2.75;;
10383;SDS011;5238;43.508;4.980;2023-05-15T01:01:31;4.25;;;3.20;;
10383;SDS011;5238;43.508;4.980;2023-05-15T01:04:02;4.95;;;3.22;;
10383;SDS011;5238;43.508;4.980;2023-05-15T01:06:33;3.50;;;3.20;;
10383;SDS011;5238;43.508;4.980;2023-05-15T01:09:02;4.07;;;3.50;;
10383;SDS011;5238;43.508;4.980;2023-05-15T01:11:40;4.50;;;4.15;;
10383;SDS011;5238;43.508;4.980;2023-05-15T01:14:09;3.40;;;3.10;;
10383;SDS011;5238;43.508;4.980;2023-05-15T01:16:41;3.30;;;3.00;;
10383;SDS011;5238;43.508;4.980;2023-05-15T01:19:15;3.90;;;3.33;;
10383;SDS011;5238;43.508;4.980;2023-05-15T01:21:50;3.40;;;3.20;;
10383;SDS011;5238;43.508;4.980;2023-05-15T01:24:56;3.65;;;3.45;;
10383;SDS011;5238;43.508;4.980;2023-05-15T01:27:47;2.50;;;2.30;;
10383;SDS011;5238;43.508;4.980;2023-05-15T01:30:19;3.30;;;3.00;;
10383;SDS011;5238;43.508;4.980;2023-05-15T01:32:53;3.78;;;3.35;;
10383;SDS011;5238;43.508;4.980;2023-05-15T01:35:30;4.03;;;3.72;;
10383;SDS011;5238;43.508;4.980;2023-05-15T01:38:04;2.63;;;2.42;;
10383;SDS011;5238;43.508;4.980;2023-05-15T01:40:38;3.05;;;2.85;;
10383;SDS011;5238;43.508;4.980;2023-05-15T01:43:07;3.70;;;2.47;;
10383;SDS011;5238;43.508;4.980;2023-05-15T01:45:36;3.13;;;2.92;;
10383;SDS011;5238;43.508;4.980;2023-05-15T01:48:06;4.25;;;3.88;;
10383;SDS011;5238;43.508;4.980;2023-05-15T01:50:35;3.72;;;3.42;;
10383;SDS011;5238;43.508;4.980;2023-05-15T01:53:05;4.20;;;3.15;;
10383;SDS011;5238;43.508;4.980;2023-05-15T01:55:35;3.95;;;3.65;;
10383;SDS011;5238;43.508;4.980;2023-05-15T01:58:11;4.07;;;3.10;;
10383;SDS011;5238;43.508;4.980;2023-05-15T02:00:39;3.88;;;3.40;;
10383;SDS011;5238;43.508;4.980;2023-05-15T02:03:09;3.40;;;3.03;;
10383;SDS011;5238;43.508;4.980;2023-05-15T02:05:36;3.88;;;3.45;;
10383;SDS011;5238;43.508;4.980;2023-05-15T02:08:05;4.03;;;3.72;;
10383;SDS011;5238;43.508;4.980;2023-05-15T02:10:34;4.60;;;4.20;;
10383;SDS011;5238;43.508;4.980;2023-05-15T02:13:03;4.75;;;3.88;;
10383;SDS011;5238;43.508;4.980;2023-05-15T02:15:35;3.78;;;3.47;;
10383;SDS011;5238;43.508;4.980;2023-05-15T02:18:07;4.32;;;4.03;;
10383;SDS011;5238;43.508;4.980;2023-05-15T02:20:35;4.15;;;3.22;;
10383;SDS011;5238;43.508;4.980;2023-05-15T02:23:02;3.40;;;3.10;;
10383;SDS011;5238;43.508;4.980;2023-05-15T02:25:31;3.35;;;3.05;;
10383;SDS011;5238;43.508;4.980;2023-05-15T02:28:13;5.57;;;3.85;;
10383;SDS011;5238;43.508;4.980;2023-05-15T02:31:08;3.20;;;2.95;;
10383;SDS011;5238;43.508;4.980;2023-05-15T02:33:44;3.50;;;3.20;;
10383;SDS011;5238;43.508;4.980;2023-05-15T02:36:21;3.90;;;3.60;;
10383;SDS011;5238;43.508;4.980;2023-05-15T02:38:54;4.38;;;3.97;;
10383;SDS011;5238;43.508;4.980;2023-05-15T02:41:24;4.07;;;3.67;;
10383;SDS011;5238;43.508;4.980;2023-05-15T02:43:55;4.53;;;3.38;;
10383;SDS011;5238;43.508;4.980;2023-05-15T02:46:25;4.50;;;3.50;;
10383;SDS011;5238;43.508;4.980;2023-05-15T02:48:55;4.22;;;3.63;;
10383;SDS011;5238;43.508;4.980;2023-05-15T02:51:36;6.20;;;3.75;;
10383;SDS011;5238;43.508;4.980;2023-05-15T02:54:03;4.40;;;4.00;;
10383;SDS011;5238;43.508;4.980;2023-05-15T02:56:33;4.75;;;4.35;;
10383;SDS011;5238;43.508;4.980;2023-05-15T02:59:00;4.38;;;3.85;;
10383;SDS011;5238;43.508;4.980;2023-05-15T03:01:29;4.93;;;4.13;;
10383;SDS011;5238;43.508;4.980;2023-05-15T03:03:57;4.05;;;3.65;;
10383;SDS011;5238;43.508;4.980;2023-05-15T03:06:24;4.60;;;4.20;;
10383;SDS011;5238;43.508;4.980;2023-05-15T03:08:53;5.00;;;4.30;;
10383;SDS011;5238;43.508;4.980;2023-05-15T03:11:20;4.60;;;4.30;;
10383;SDS011;5238;43.508;4.980;2023-05-15T03:13:47;3.75;;;3.45;;
10383;SDS011;5238;43.508;4.980;2023-05-15T03:16:16;4.55;;;4.15;;
10383;SDS011;5238;43.508;4.980;2023-05-15T03:18:51;5.07;;;4.68;;
10383;SDS011;5238;43.508;4.980;2023-05-15T03:21:20;4.25;;;3.85;;
10383;SDS011;5238;43.508;4.980;2023-05-15T03:23:56;4.63;;;4.22;;
10383;SDS011;5238;43.508;4.980;2023-05-15T03:26:25;6.38;;;4.28;;
10383;SDS011;5238;43.508;4.980;2023-05-15T03:29:01;4.00;;;3.70;;
10383;SDS011;5238;43.508;4.980;2023-05-15T03:31:32;5.22;;;4.82;;
10383;SDS011;5238;43.508;4.980;2023-05-15T03:34:03;5.90;;;5.10;;
10383;SDS011;5238;43.508;4.980;2023-05-15T03:36:32;4.03;;;3.63;;
10383;SDS011;5238;43.508;4.980;2023-05-15T03:39:01;4.40;;;4.00;;
10383;SDS011;5238;43.508;4.980;2023-05-15T03:41:32;4.72;;;4.18;;
10383;SDS011;5238;43.508;4.980;2023-05-15T03:44:03;4.75;;;4.35;;
10383;SDS011;5238;43.508;4.980;2023-05-15T03:46:32;5.57;;;5.05;;
10383;SDS011;5238;43.508;4.980;2023-05-15T03:49:01;4.55;;;4.15;;
10383;SDS011;5238;43.508;4.980;2023-05-15T03:51:30;5.20;;;4.43;;
10383;SDS011;5238;43.508;4.980;2023-05-15T03:53:57;6.72;;;4.32;;
10383;SDS011;5238;43.508;4.980;2023-05-15T03:56:29;4.50;;;4.00;;
10383;SDS011;5238;43.508;4.980;2023-05-15T03:58:57;5.15;;;4.50;;
10383;SDS011;5238;43.508;4.980;2023-05-15T04:01:25;4.72;;;4.32;;
10383;SDS011;5238;43.508;4.980;2023-05-15T04:03:52;5.13;;;4.68;;
10383;SDS011;5238;43.508;4.980;2023-05-15T04:06:21;5.38;;;4.88;;
10383;SDS011;5238;43.508;4.980;2023-05-15T04:08:48;6.97;;;5.28;;
10383;SDS011;5238;43.508;4.980;2023-05-15T04:11:15;5.65;;;5.15;;
10383;SDS011;5238;43.508;4.980;2023-05-15T04:13:45;5.80;;;5.25;;
10383;SDS011;5238;43.508;4.980;2023-05-15T04:16:13;5.40;;;4.88;;
10383;SDS011;5238;43.508;4.980;2023-05-15T04:18:40;7.55;;;5.43;;
10383;SDS011;5238;43.508;4.980;2023-05-15T04:21:07;5.93;;;5.40;;
10383;SDS011;5238;43.508;4.980;2023-05-15T04:23:38;6.05;;;5.38;;
10383;SDS011;5238;43.508;4.980;2023-05-15T04:26:05;6.18;;;5.38;;
10383;SDS011;5238;43.508;4.980;2023-05-15T04:28:33;6.10;;;5.45;;
10383;SDS011;5238;43.508;4.980;2023-05-15T04:31:03;6.18;;;5.57;;
10383;SDS011;5238;43.508;4.980;2023-05-15T04:33:33;6.10;;;5.50;;
10383;SDS011;5238;43.508;4.980;2023-05-15T04:36:02;5.53;;;5.03;;
10383;SDS011;5238;43.508;4.980;2023-05-15T04:38:32;7.75;;;6.60;;
10383;SDS011;5238;43.508;4.980;2023-05-15T04:41:00;6.07;;;5.53;;
10383;SDS011;5238;43.508;4.980;2023-05-15T04:43:27;6.68;;;5.97;;
10383;SDS011;5238;43.508;4.980;2023-05-15T04:45:56;5.93;;;5.38;;
10383;SDS011;5238;43.508;4.980;2023-05-15T04:48:23;8.35;;;6.32;;
10383;SDS011;5238;43.508;4.980;2023-05-15T04:50:55;6.95;;;6.00;;
10383;SDS011;5238;43.508;4.980;2023-05-15T04:53:21;7.10;;;5.82;;
10383;SDS011;5238;43.508;4.980;2023-05-15T04:55:50;7.57;;;6.05;;
10383;SDS011;5238;43.508;4.980;2023-05-15T04:58:19;7.05;;;5.72;;
10383;SDS011;5238;43.508;4.980;2023-05-15T05:00:46;6.95;;;6.35;;
10383;SDS011;5238;43.508;4.980;2023-05-15T05:03:13;7.15;;;6.45;;
10383;SDS011;5238;43.508;4.980;2023-05-15T05:05:40;6.38;;;5.68;;
10383;SDS011;5238;43.508;4.980;2023-05-15T05:08:17;6.93;;;6.03;;
10383;SDS011;5238;43.508;4.980;2023-05-15T05:10:45;7.30;;;6.63;;
10383;SDS011;5238;43.508;4.980;2023-05-15T05:13:12;6.10;;;5.50;;
10383;SDS011;5238;43.508;4.980;2023-05-15T05:15:40;8.63;;;5.53;;
10383;SDS011;5238;43.508;4.980;2023-05-15T05:18:16;5.85;;;5.22;;
10383;SDS011;5238;43.508;4.980;2023-05-15T05:20:43;6.97;;;6.38;;
10383;SDS011;5238;43.508;4.980;2023-05-15T05:23:12;6.10;;;5.50;;
10383;SDS011;5238;43.508;4.980;2023-05-15T05:25:40;6.50;;;5.90;;
10383;SDS011;5238;43.508;4.980;2023-05-15T05:28:14;6.32;;;5.72;;
10383;SDS011;5238;43.508;4.980;2023-05-15T05:30:44;6.15;;;5.60;;
10383;SDS011;5238;43.508;4.980;2023-05-15T05:33:13;6.80;;;6.10;;
10383;SDS011;5238;43.508;4.980;2023-05-15T05:35:40;6.90;;;6.20;;
10383;SDS011;5238;43.508;4.980;2023-05-15T05:38:07;6.25;;;5.68;;
10383;SDS011;5238;43.508;4.980;2023-05-15T05:40:34;7.45;;;6.55;;
10383;SDS011;5238;43.508;4.980;2023-05-15T05:43:02;5.93;;;5.32;;
10383;SDS011;5238;43.508;4.980;2023-05-15T05:45:32;8.43;;;6.43;;
10383;SDS011;5238;43.508;4.980;2023-05-15T05:48:00;6.10;;;5.18;;
10383;SDS011;5238;43.508;4.980;2023-05-15T05:53:10;7.53;;;5.55;;
10383;SDS011;5238;43.508;4.980;2023-05-15T05:55:38;6.68;;;6.07;;
10383;SDS011;5238;43.508;4.980;2023-05-15T05:58:05;9.18;;;5.45;;
10383;SDS011;5238;43.508;4.980;2023-05-15T06:00:32;6.03;;;5.43;;
10383;SDS011;5238;43.508;4.980;2023-05-15T06:03:00;7.78;;;6.50;;
10383;SDS011;5238;43.508;4.980;2023-05-15T06:05:29;6.55;;;5.63;;
10383;SDS011;5238;43.508;4.980;2023-05-15T06:07:56;12.35;;;5.47;;
10383;SDS011;5238;43.508;4.980;2023-05-15T06:10:25;6.65;;;5.53;;
10383;SDS011;5238;43.508;4.980;2023-05-15T06:12:56;7.95;;;6.07;;
10383;SDS011;5238;43.508;4.980;2023-05-15T06:15:23;6.60;;;5.95;;
10383;SDS011;5238;43.508;4.980;2023-05-15T06:17:51;7.20;;;5.43;;
10383;SDS011;5238;43.508;4.980;2023-05-15T06:23:28;7.25;;;6.55;;
10383;SDS011;5238;43.508;4.980;2023-05-15T06:26:10;8.15;;;7.55;;
10383;SDS011;5238;43.508;4.980;2023-05-15T06:28:45;7.05;;;6.50;;
10383;SDS011;5238;43.508;4.980;2023-05-15T06:31:33;6.68;;;6.07;;
10383;SDS011;5238;43.508;4.980;2023-05-15T06:34:03;5.60;;;5.10;;
10383;SDS011;5238;43.508;4.980;2023-05-15T06:36:30;5.68;;;5.13;;
10383;SDS011;5238;43.508;4.980;2023-05-15T06:39:04;5.70;;;5.20;;
10383;SDS011;5238;43.508;4.980;2023-05-15T06:41:34;6.30;;;5.07;;
10383;SDS011;5238;43.508;4.980;2023-05-15T06:44:09;6.30;;;5.70;;
10383;SDS011;5238;43.508;4.980;2023-05-15T06:46:36;6.47;;;5.70;;
10383;SDS011;5238;43.508;4.980;2023-05-15T06:49:03;6.72;;;6.22;;
10383;SDS011;5238;43.508;4.980;2023-05-15T06:51:32;6.03;;;5.43;;
10383;SDS011;5238;43.508;4.980;2023-05-15T06:54:00;6.18;;;5.40;;
10383;SDS011;5238;43.508;4.980;2023-05-15T07:03:07;5.95;;;5.38;;
10383;SDS011;5238;43.508;4.980;2023-05-15T07:05:55;5.50;;;5.00;;
10383;SDS011;5238;43.508;4.980;2023-05-15T07:08:22;8.30;;;5.72;;
10383;SDS011;5238;43.508;4.980;2023-05-15T07:10:51;7.97;;;7.22;;
10383;SDS011;5238;43.508;4.980;2023-05-15T07:13:22;7.10;;;5.90;;
10383;SDS011;5238;43.508;4.980;2023-05-15T07:16:00;6.63;;;5.63;;
10383;SDS011;5238;43.508;4.980;2023-05-15T07:18:31;7.07;;;5.88;;
10383;SDS011;5238;43.508;4.980;2023-05-15T07:21:00;6.57;;;5.97;;
10383;SDS011;5238;43.508;4.980;2023-05-15T07:23:28;6.70;;;6.05;;
10383;SDS011;5238;43.508;4.980;2023-05-15T07:25:56;7.38;;;6.30;;
10383;SDS011;5238;43.508;4.980;2023-05-15T07:31:38;6.95;;;5.90;;
10383;SDS011;5238;43.508;4.980;2023-05-15T07:34:12;8.88;;;5.85;;
10383;SDS011;5238;43.508;4.980;2023-05-15T07:36:39;6.20;;;5.60;;
10383;SDS011;5238;43.508;4.980;2023-05-15T07:48:23;11.85;;;6.30;;
10383;SDS011;5238;43.508;4.980;2023-05-15T07:54:13;5.45;;;5.05;;
10383;SDS011;5238;43.508;4.980;2023-05-15T08:03:25;7.60;;;6.90;;
10383;SDS011;5238;43.508;4.980;2023-05-15T08:05:53;7.40;;;6.70;;
10383;SDS011;5238;43.508;4.980;2023-05-15T08:11:46;9.68;;;6.20;;
10383;SDS011;5238;43.508;4.980;2023-05-15T09:02:55;10.40;;;7.30;;
10383;SDS011;5238;43.508;4.980;2023-05-15T09:12:16;8.77;;;7.25;;
10383;SDS011;5238;43.508;4.980;2023-05-15T09:35:01;8.18;;;7.47;;
10383;SDS011;5238;43.508;4.980;2023-05-15T09:40:50;9.63;;;7.10;;
10383;SDS011;5238;43.508;4.980;2023-05-15T10:01:05;8.13;;;6.28;;
10383;SDS011;5238;43.508;4.980;2023-05-15T12:39:58;6.80;;;6.00;;
10383;SDS011;5238;43.508;4.980;2023-05-15T12:46:05;7.20;;;5.25;;
10383;SDS011;5238;43.508;4.980;2023-05-15T13:04:48;5.63;;;5.13;;
10383;SDS011;5238;43.508;4.980;2023-05-15T13:07:24;6.82;;;6.10;;
10383;SDS011;5238;43.508;4.980;2023-05-15T13:13:04;6.20;;;5.70;;
10383;SDS011;5238;43.508;4.980;2023-05-15T13:15:50;6.55;;;6.05;;
10383;SDS011;5238;43.508;4.980;2023-05-15T13:18:22;6.25;;;5.78;;
10383;SDS011;5238;43.508;4.980;2023-05-15T13:30:52;5.55;;;4.47;;
10383;SDS011;5238;43.508;4.980;2023-05-15T14:07:10;4.72;;;4.28;;
10383;SDS011;5238;43.508;4.980;2023-05-15T14:54:13;6.63;;;4.40;;
10383;SDS011;5238;43.508;4.980;2023-05-15T15:25:58;6.53;;;5.80;;
10383;SDS011;5238;43.508;4.980;2023-05-15T15:32:13;6.57;;;5.75;;
10383;SDS011;5238;43.508;4.980;2023-05-15T15:34:57;6.15;;;5.55;;
10383;SDS011;5238;43.508;4.980;2023-05-15T16:07:49;7.40;;;5.07;;
10383;SDS011;5238;43.508;4.980;2023-05-15T16:21:02;7.57;;;4.65;;
10383;SDS011;5238;43.508;4.980;2023-05-15T16:26:50;6.40;;;5.80;;
10383;SDS011;5238;43.508;4.980;2023-05-15T16:35:42;5.90;;;5.40;;
10383;SDS011;5238;43.508;4.980;2023-05-15T16:41:58;7.20;;;5.70;;
10383;SDS011;5238;43.508;4.980;2023-05-15T16:44:42;7.80;;;5.75;;
10383;SDS011;5238;43.508;4.980;2023-05-15T16:50:21;6.50;;;5.90;;
10383;SDS011;5238;43.508;4.980;2023-05-15T16:53:04;6.38;;;5.82;;
10383;SDS011;5238;43.508;4.980;2023-05-15T17:02:58;7.68;;;5.35;;
10383;SDS011;5238;43.508;4.980;2023-05-15T17:12:04;8.32;;;4.53;;
10383;SDS011;5238;43.508;4.980;2023-05-15T17:14:34;6.10;;;4.80;;
10383;SDS011;5238;43.508;4.980;2023-05-15T17:20:56;5.88;;;5.15;;
10383;SDS011;5238;43.508;4.980;2023-05-15T17:23:39;7.35;;;6.18;;
10383;SDS011;5238;43.508;4.980;2023-05-15T17:26:05;6.72;;;6.03;;
10383;SDS011;5238;43.508;4.980;2023-05-15T17:28:43;6.78;;;5.95;;
10383;SDS011;5238;43.508;4.980;2023-05-15T17:31:11;6.75;;;5.85;;
10383;SDS011;5238;43.508;4.980;2023-05-15T17:33:40;8.57;;;5.78;;
10383;SDS011;5238;43.508;4.980;2023-05-15T17:36:08;6.05;;;4.95;;
10383;SDS011;5238;43.508;4.980;2023-05-15T17:38:47;6.13;;;5.50;;
10383;SDS011;5238;43.508;4.980;2023-05-15T17:41:28;6.38;;;4.80;;
10383;SDS011;5238;43.508;4.980;2023-05-15T17:44:03;5.75;;;5.15;;
10383;SDS011;5238;43.508;4.980;2023-05-15T17:49:45;7.90;;;5.53;;
10383;SDS011;5238;43.508;4.980;2023-05-15T17:52:14;6.15;;;5.55;;
10383;SDS011;5238;43.508;4.980;2023-05-15T17:54:44;6.15;;;5.15;;
10383;SDS011;5238;43.508;4.980;2023-05-15T18:06:04;7.03;;;6.47;;
10383;SDS011;5238;43.508;4.980;2023-05-15T18:08:52;4.47;;;4.07;;
10383;SDS011;5238;43.508;4.980;2023-05-15T18:11:43;6.95;;;5.88;;
10383;SDS011;5238;43.508;4.980;2023-05-15T18:14:15;4.53;;;4.15;;
10383;SDS011;5238;43.508;4.980;2023-05-15T18:20:05;7.05;;;4.75;;
10383;SDS011;5238;43.508;4.980;2023-05-15T18:22:37;5.10;;;4.53;;
10383;SDS011;5238;43.508;4.980;2023-05-15T18:25:11;6.40;;;5.90;;
10383;SDS011;5238;43.508;4.980;2023-05-15T18:27:38;7.47;;;4.80;;
10383;SDS011;5238;43.508;4.980;2023-05-15T18:30:05;4.85;;;4.47;;
10383;SDS011;5238;43.508;4.980;2023-05-15T18:32:38;5.03;;;4.63;;
10383;SDS011;5238;43.508;4.980;2023-05-15T18:35:10;5.28;;;4.78;;
10383;SDS011;5238;43.508;4.980;2023-05-15T18:37:42;5.22;;;4.70;;
10383;SDS011;5238;43.508;4.980;2023-05-15T18:40:11;4.53;;;4.13;;
10383;SDS011;5238;43.508;4.980;2023-05-15T18:42:39;5.50;;;4.88;;
10383;SDS011;5238;43.508;4.980;2023-05-15T18:45:06;4.57;;;4.15;;
10383;SDS011;5238;43.508;4.980;2023-05-15T18:47:37;5.82;;;5.22;;
10383;SDS011;5238;43.508;4.980;2023-05-15T18:50:10;5.20;;;4.75;;
10383;SDS011;5238;43.508;4.980;2023-05-15T18:52:38;7.35;;;4.60;;
10383;SDS011;5238;43.508;4.980;2023-05-15T18:55:05;4.30;;;3.90;;
10383;SDS011;5238;43.508;4.980;2023-05-15T18:57:37;4.40;;;4.00;;
10383;SDS011;5238;43.508;4.980;2023-05-15T19:00:19;6.88;;;4.88;;
10383;SDS011;5238;43.508;4.980;2023-05-15T19:02:48;4.68;;;4.03;;
10383;SDS011;5238;43.508;4.980;2023-05-15T19:05:22;3.90;;;3.50;;
10383;SDS011;5238;43.508;4.980;2023-05-15T19:07:51;4.85;;;4.38;;
10383;SDS011;5238;43.508;4.980;2023-05-15T19:10:18;6.47;;;4.43;;
10383;SDS011;5238;43.508;4.980;2023-05-15T19:12:49;4.53;;;4.13;;
10383;SDS011;5238;43.508;4.980;2023-05-15T19:15:17;5.55;;;5.05;;
10383;SDS011;5238;43.508;4.980;2023-05-15T19:17:48;4.93;;;4.53;;
10383;SDS011;5238;43.508;4.980;2023-05-15T19:20:19;5.47;;;5.00;;
10383;SDS011;5238;43.508;4.980;2023-05-15T19:22:53;5.40;;;5.00;;
10383;SDS011;5238;43.508;4.980;2023-05-15T19:25:24;4.53;;;4.13;;
10383;SDS011;5238;43.508;4.980;2023-05-15T19:27:55;4.75;;;4.35;;
10383;SDS011;5238;43.508;4.980;2023-05-15T19:30:25;4.70;;;4.30;;
10383;SDS011;5238;43.508;4.980;2023-05-15T19:32:52;4.78;;;4.47;;
10383;SDS011;5238;43.508;4.980;2023-05-15T19:35:19;5.00;;;4.03;;
10383;SDS011;5238;43.508;4.980;2023-05-15T19:37:46;4.72;;;4.30;;
10383;SDS011;5238;43.508;4.980;2023-05-15T19:40:13;5.60;;;4.10;;
10383;SDS011;5238;43.508;4.980;2023-05-15T19:42:40;5.82;;;4.43;;
10383;SDS011;5238;43.508;4.980;2023-05-15T19:45:14;5.70;;;4.95;;
10383;SDS011;5238;43.508;4.980;2023-05-15T19:47:44;4.43;;;4.03;;
10383;SDS011;5238;43.508;4.980;2023-05-15T19:50:11;4.65;;;4.18;;
10383;SDS011;5238;43.508;4.980;2023-05-15T19:52:42;5.28;;;4.78;;
10383;SDS011;5238;43.508;4.980;2023-05-15T19:55:10;4.50;;;4.10;;
10383;SDS011;5238;43.508;4.980;2023-05-15T19:57:37;4.65;;;3.65;;
10383;SDS011;5238;43.508;4.980;2023-05-15T20:00:07;5.15;;;4.70;;
10383;SDS011;5238;43.508;4.980;2023-05-15T20:02:37;5.07;;;4.03;;
10383;SDS011;5238;43.508;4.980;2023-05-15T20:05:05;6.75;;;4.68;;
10383;SDS011;5238;43.508;4.980;2023-05-15T20:07:35;6.60;;;4.10;;
10383;SDS011;5238;43.508;4.980;2023-05-15T20:10:02;4.22;;;3.60;;
10383;SDS011;5238;43.508;4.980;2023-05-15T20:12:32;5.00;;;4.50;;
10383;SDS011;5238;43.508;4.980;2023-05-15T20:15:01;5.25;;;3.75;;
10383;SDS011;5238;43.508;4.980;2023-05-15T20:17:28;4.43;;;4.03;;
10383;SDS011;5238;43.508;4.980;2023-05-15T20:20:00;4.28;;;3.67;;
10383;SDS011;5238;43.508;4.980;2023-05-15T20:22:29;5.05;;;3.72;;
10383;SDS011;5238;43.508;4.980;2023-05-15T20:24:58;7.13;;;4.40;;
10383;SDS011;5238;43.508;4.980;2023-05-15T20:27:28;5.25;;;4.65;;
10383;SDS011;5238;43.508;4.980;2023-05-15T20:29:57;4.82;;;4.43;;
10383;SDS011;5238;43.508;4.980;2023-05-15T20:32:25;6.13;;;4.10;;
10383;SDS011;5238;43.508;4.980;2023-05-15T20:34:57;6.00;;;4.40;;
10383;SDS011;5238;43.508;4.980;2023-05-15T20:37:24;4.50;;;3.97;;
10383;SDS011;5238;43.508;4.980;2023-05-15T20:39:57;5.20;;;4.70;;
10383;SDS011;5238;43.508;4.980;2023-05-15T20:42:25;6.35;;;4.75;;
10383;SDS011;5238;43.508;4.980;2023-05-15T20:44:52;7.75;;;4.35;;
10383;SDS011;5238;43.508;4.980;2023-05-15T20:47:19;6.20;;;3.97;;
10383;SDS011;5238;43.508;4.980;2023-05-15T20:49:49;4.53;;;4.13;;
10383;SDS011;5238;43.508;4.980;2023-05-15T20:52:18;5.70;;;5.10;;
10383;SDS011;5238;43.508;4.980;2023-05-15T20:54:48;6.07;;;4.57;;
10383;SDS011;5238;43.508;4.980;2023-05-15T20:57:19;5.28;;;4.00;;
10383;SDS011;5238;43.508;4.980;2023-05-15T20:59:49;4.95;;;3.58;;
10383;SDS011;5238;43.508;4.980;2023-05-15T21:02:16;5.38;;;4.55;;
10383;SDS011;5238;43.508;4.980;2023-05-15T21:04:43;4.85;;;4.38;;
10383;SDS011;5238;43.508;4.980;2023-05-15T21:07:10;4.90;;;4.13;;
10383;SDS011;5238;43.508;4.980;2023-05-15T21:09:38;5.25;;;4.15;;
10383;SDS011;5238;43.508;4.980;2023-05-15T21:12:05;4.93;;;4.43;;
10383;SDS011;5238;43.508;4.980;2023-05-15T21:14:33;5.25;;;4.65;;
10383;SDS011;5238;43.508;4.980;2023-05-15T21:16:59;4.78;;;4.00;;
10383;SDS011;5238;43.508;4.980;2023-05-15T21:19:31;5.55;;;4.32;;
10383;SDS011;5238;43.508;4.980;2023-05-15T21:22:06;5.10;;;4.55;;
10383;SDS011;5238;43.508;4.980;2023-05-15T21:24:33;5.78;;;5.28;;
10383;SDS011;5238;43.508;4.980;2023-05-15T21:27:06;5.20;;;4.72;;
10383;SDS011;5238;43.508;4.980;2023-05-15T21:29:33;5.15;;;4.50;;
10383;SDS011;5238;43.508;4.980;2023-05-15T21:32:02;5.45;;;4.95;;
10383;SDS011;5238;43.508;4.980;2023-05-15T21:34:33;5.00;;;4.50;;
10383;SDS011;5238;43.508;4.980;2023-05-15T21:37:00;5.30;;;4.80;;
10383;SDS011;5238;43.508;4.980;2023-05-15T21:39:28;4.75;;;4.35;;
10383;SDS011;5238;43.508;4.980;2023-05-15T21:41:57;6.97;;;6.28;;
10383;SDS011;5238;43.508;4.980;2023-05-15T21:44:26;6.32;;;4.45;;
10383;SDS011;5238;43.508;4.980;2023-05-15T21:46:56;5.97;;;5.43;;
10383;SDS011;5238;43.508;4.980;2023-05-15T21:49:23;4.80;;;4.40;;
10383;SDS011;5238;43.508;4.980;2023-05-15T21:51:53;5.78;;;5.20;;
10383;SDS011;5238;43.508;4.980;2023-05-15T21:54:20;5.40;;;4.75;;
10383;SDS011;5238;43.508;4.980;2023-05-15T21:56:48;5.00;;;4.60;;
10383;SDS011;5238;43.508;4.980;2023-05-15T21:59:16;5.57;;;5.05;;
10383;SDS011;5238;43.508;4.980;2023-05-15T22:01:45;6.40;;;4.75;;
10383;SDS011;5238;43.508;4.980;2023-05-15T22:04:12;4.93;;;4.43;;
10383;SDS011;5238;43.508;4.980;2023-05-15T22:06:47;5.82;;;4.78;;
10383;SDS011;5238;43.508;4.980;2023-05-15T22:09:15;4.95;;;4.55;;
10383;SDS011;5238;43.508;4.980;2023-05-15T22:11:42;7.25;;;5.70;;
10383;SDS011;5238;43.508;4.980;2023-05-15T22:14:14;6.18;;;5.57;;
10383;SDS011;5238;43.508;4.980;2023-05-15T22:16:52;6.93;;;6.00;;
10383;SDS011;5238;43.508;4.980;2023-05-15T22:19:21;5.78;;;4.80;;
10383;SDS011;5238;43.508;4.980;2023-05-15T22:21:50;5.47;;;4.47;;
10383;SDS011;5238;43.508;4.980;2023-05-15T22:24:17;5.88;;;5.28;;
10383;SDS011;5238;43.508;4.980;2023-05-15T22:26:48;6.15;;;5.53;;
10383;SDS011;5238;43.508;4.980;2023-05-15T22:29:17;5.53;;;5.10;;
10383;SDS011;5238;43.508;4.980;2023-05-15T22:31:44;5.82;;;5.32;;
10383;SDS011;5238;43.508;4.980;2023-05-15T22:34:15;6.10;;;5.50;;
10383;SDS011;5238;43.508;4.980;2023-05-15T22:36:41;6.88;;;5.70;;
10383;SDS011;5238;43.508;4.980;2023-05-15T22:39:09;6.07;;;4.70;;
10383;SDS011;5238;43.508;4.980;2023-05-15T22:41:36;6.50;;;5.90;;
10383;SDS011;5238;43.508;4.980;2023-05-15T22:44:03;6.13;;;5.70;;
10383;SDS011;5238;43.508;4.980;2023-05-15T22:46:30;4.22;;;3.83;;
10383;SDS011;5238;43.508;4.980;2023-05-15T22:48:59;4.97;;;4.47;;
10383;SDS011;5238;43.508;4.980;2023-05-15T22:51:30;5.00;;;4.60;;
10383;SDS011;5238;43.508;4.980;2023-05-15T22:53:57;5.70;;;5.00;;
10383;SDS011;5238;43.508;4.980;2023-05-15T22:56:27;4.72;;;4.25;;
10383;SDS011;5238;43.508;4.980;2023-05-15T22:58:54;5.00;;;4.47;;
10383;SDS011;5238;43.508;4.980;2023-05-15T23:01:21;4.25;;;3.85;;
10383;SDS011;5238;43.508;4.980;2023-05-15T23:03:53;6.20;;;5.70;;
10383;SDS011;5238;43.508;4.980;2023-05-15T23:06:20;4.97;;;4.10;;
10383;SDS011;5238;43.508;4.980;2023-05-15T23:08:51;4.15;;;3.80;;
10383;SDS011;5238;43.508;4.980;2023-05-15T23:11:20;5.30;;;4.20;;
10383;SDS011;5238;43.508;4.980;2023-05-15T23:13:47;5.15;;;4.32;;
10383;SDS011;5238;43.508;4.980;2023-05-15T23:16:16;5.65;;;5.13;;
10383;SDS011;5238;43.508;4.980;2023-05-15T23:18:46;5.93;;;4.20;;
10383;SDS011;5238;43.508;4.980;2023-05-15T23:21:13;5.63;;;4.10;;
10383;SDS011;5238;43.508;4.980;2023-05-15T23:23:42;4.85;;;4.43;;
10383;SDS011;5238;43.508;4.980;2023-05-15T23:26:10;5.05;;;4.65;;
10383;SDS011;5238;43.508;4.980;2023-05-15T23:28:37;4.57;;;3.95;;
10383;SDS011;5238;43.508;4.980;2023-05-15T23:31:07;4.53;;;4.07;;
10383;SDS011;5238;43.508;4.980;2023-05-15T23:33:35;5.25;;;4.60;;
10383;SDS011;5238;43.508;4.980;2023-05-15T23:36:04;5.38;;;4.50;;
10383;SDS011;5238;43.508;4.980;2023-05-15T23:38:31;5.97;;;5.20;;
10383;SDS011;5238;43.508;4.980;2023-05-15T23:40:58;4.43;;;4.03;;
10383;SDS011;5238;43.508;4.980;2023-05-15T23:43:27;4.85;;;4.35;;
10383;SDS011;5238;43.508;4.980;2023-05-15T23:45:58;4.47;;;4.07;;
10383;SDS011;5238;43.508;4.980;2023-05-15T23:48:25;6.30;;;5.13;;
10383;SDS011;5238;43.508;4.980;2023-05-15T23:50:52;4.70;;;4.30;;
10383;SDS011;5238;43.508;4.980;2023-05-15T23:53:19;4.85;;;4.35;;
10383;SDS011;5238;43.508;4.980;2023-05-15T23:55:46;9.70;;;4.57;;
10383;SDS011;5238;43.508;4.980;2023-05-15T23:58:13;5.80;;;5.18;;
